sensor_id;sensor_type;location;lat;lon;timestamp;pressure;altitude;pressure_sealevel;temperature;humidity
22257;BME280;11297;42.686;23.374;2023-03-04T00:00:27;95039.16;;;9.50;70.05
22257;BME280;11297;42.686;23.374;2023-03-04T00:02:52;95029.63;;;9.59;69.64
22257;BME280;11297;42.686;23.374;2023-03-04T00:05:18;95038.06;;;9.64;69.07
22257;BME280;11297;42.686;23.374;2023-03-04T00:07:43;95029.72;;;9.67;68.95
22257;BME280;11297;42.686;23.374;2023-03-04T00:10:09;95021.97;;;9.76;68.58
22257;BME280;11297;42.686;23.374;2023-03-04T00:12:35;95014.19;;;9.76;68.16
22257;BME280;11297;42.686;23.374;2023-03-04T00:15:00;95021.28;;;9.97;67.74
22257;BME280;11297;42.686;23.374;2023-03-04T00:17:26;95030.88;;;9.97;67.07
22257;BME280;11297;42.686;23.374;2023-03-04T00:19:51;95019.53;;;9.93;67.54
22257;BME280;11297;42.686;23.374;2023-03-04T00:22:16;95014.84;;;9.95;67.42
22257;BME280;11297;42.686;23.374;2023-03-04T00:24:42;95007.81;;;9.95;66.98
22257;BME280;11297;42.686;23.374;2023-03-04T00:27:07;95015.13;;;9.93;67.26
22257;BME280;11297;42.686;23.374;2023-03-04T00:29:32;95017.81;;;9.88;67.27
22257;BME280;11297;42.686;23.374;2023-03-04T00:31:58;95015.03;;;9.85;67.72
22257;BME280;11297;42.686;23.374;2023-03-04T00:34:23;95007.31;;;9.71;67.87
22257;BME280;11297;42.686;23.374;2023-03-04T00:36:48;94997.81;;;9.67;68.18
22257;BME280;11297;42.686;23.374;2023-03-04T00:39:14;95005.59;;;9.67;68.10
22257;BME280;11297;42.686;23.374;2023-03-04T00:41:39;95002.06;;;9.63;68.34
22257;BME280;11297;42.686;23.374;2023-03-04T00:44:05;95008.84;;;9.72;68.66
22257;BME280;11297;42.686;23.374;2023-03-04T00:46:31;95004.53;;;9.68;68.36
22257;BME280;11297;42.686;23.374;2023-03-04T00:48:56;95010.97;;;9.70;68.65
22257;BME280;11297;42.686;23.374;2023-03-04T00:51:21;95008.59;;;9.60;68.91
22257;BME280;11297;42.686;23.374;2023-03-04T00:53:47;95006.97;;;9.64;69.00
22257;BME280;11297;42.686;23.374;2023-03-04T00:56:12;95001.09;;;9.59;69.11
22257;BME280;11297;42.686;23.374;2023-03-04T00:58:37;95004.66;;;9.63;69.16
22257;BME280;11297;42.686;23.374;2023-03-04T01:01:05;94997.22;;;9.70;69.51
22257;BME280;11297;42.686;23.374;2023-03-04T01:03:30;94988.84;;;9.73;68.83
22257;BME280;11297;42.686;23.374;2023-03-04T01:05:57;94996.28;;;9.88;68.55
22257;BME280;11297;42.686;23.374;2023-03-04T01:08:22;95000.81;;;9.96;67.96
22257;BME280;11297;42.686;23.374;2023-03-04T01:10:47;95014.13;;;10.02;67.99
22257;BME280;11297;42.686;23.374;2023-03-04T01:13:13;94993.03;;;9.96;67.16
22257;BME280;11297;42.686;23.374;2023-03-04T01:15:38;95009.53;;;10.00;67.23
22257;BME280;11297;42.686;23.374;2023-03-04T01:18:04;94999.16;;;10.00;67.30
22257;BME280;11297;42.686;23.374;2023-03-04T01:20:29;94994.88;;;9.82;66.62
22257;BME280;11297;42.686;23.374;2023-03-04T01:22:54;94991.69;;;9.85;67.18
22257;BME280;11297;42.686;23.374;2023-03-04T01:25:20;94992.03;;;9.70;67.43
22257;BME280;11297;42.686;23.374;2023-03-04T01:27:45;94984.75;;;9.72;67.32
22257;BME280;11297;42.686;23.374;2023-03-04T01:30:11;94985.13;;;9.65;67.42
22257;BME280;11297;42.686;23.374;2023-03-04T01:32:37;94978.22;;;9.61;67.76
22257;BME280;11297;42.686;23.374;2023-03-04T01:35:02;94961.38;;;9.50;68.07
22257;BME280;11297;42.686;23.374;2023-03-04T01:37:27;94985.78;;;9.71;68.23
22257;BME280;11297;42.686;23.374;2023-03-04T01:39:53;94969.88;;;9.64;67.28
22257;BME280;11297;42.686;23.374;2023-03-04T01:42:20;94978.00;;;9.71;67.07
22257;BME280;11297;42.686;23.374;2023-03-04T01:44:46;94965.75;;;9.63;67.62
22257;BME280;11297;42.686;23.374;2023-03-04T01:47:13;94964.09;;;9.67;67.55
22257;BME280;11297;42.686;23.374;2023-03-04T01:49:39;94962.00;;;9.69;68.26
22257;BME280;11297;42.686;23.374;2023-03-04T01:52:07;94968.00;;;9.78;67.83
22257;BME280;11297;42.686;23.374;2023-03-04T01:54:34;94960.97;;;9.78;67.30
22257;BME280;11297;42.686;23.374;2023-03-04T01:57:00;94966.84;;;9.84;67.47
22257;BME280;11297;42.686;23.374;2023-03-04T01:59:29;94960.75;;;9.88;67.36
22257;BME280;11297;42.686;23.374;2023-03-04T02:01:57;94958.31;;;9.92;66.92
22257;BME280;11297;42.686;23.374;2023-03-04T02:04:25;94955.56;;;9.88;66.87
22257;BME280;11297;42.686;23.374;2023-03-04T02:06:53;94954.16;;;9.82;66.43
22257;BME280;11297;42.686;23.374;2023-03-04T02:09:19;94956.56;;;9.79;66.44
22257;BME280;11297;42.686;23.374;2023-03-04T02:11:47;94960.31;;;9.73;66.42
22257;BME280;11297;42.686;23.374;2023-03-04T02:14:14;94968.00;;;9.78;66.64
22257;BME280;11297;42.686;23.374;2023-03-04T02:16:40;94962.22;;;9.81;66.37
22257;BME280;11297;42.686;23.374;2023-03-04T02:21:54;94956.69;;;9.74;66.63
22257;BME280;11297;42.686;23.374;2023-03-04T02:24:30;94951.03;;;9.72;66.80
22257;BME280;11297;42.686;23.374;2023-03-04T02:26:59;94953.31;;;9.73;66.86
22257;BME280;11297;42.686;23.374;2023-03-04T02:29:24;94955.03;;;9.78;66.53
22257;BME280;11297;42.686;23.374;2023-03-04T02:31:51;94945.72;;;9.77;66.12
22257;BME280;11297;42.686;23.374;2023-03-04T02:34:20;94954.78;;;9.88;66.16
22257;BME280;11297;42.686;23.374;2023-03-04T02:36:47;94963.53;;;9.92;65.53
22257;BME280;11297;42.686;23.374;2023-03-04T02:41:44;94951.84;;;10.02;65.28
22257;BME280;11297;42.686;23.374;2023-03-04T02:44:18;94950.97;;;10.07;65.14
22257;BME280;11297;42.686;23.374;2023-03-04T02:46:45;94948.56;;;10.10;64.79
22257;BME280;11297;42.686;23.374;2023-03-04T02:49:11;94943.06;;;10.12;64.92
22257;BME280;11297;42.686;23.374;2023-03-04T02:51:36;94942.00;;;10.13;64.53
22257;BME280;11297;42.686;23.374;2023-03-04T02:54:02;94939.41;;;10.13;64.58
22257;BME280;11297;42.686;23.374;2023-03-04T02:56:27;94935.09;;;10.08;64.30
22257;BME280;11297;42.686;23.374;2023-03-04T02:58:52;94942.88;;;10.08;64.60
22257;BME280;11297;42.686;23.374;2023-03-04T03:01:18;94919.72;;;9.90;64.86
22257;BME280;11297;42.686;23.374;2023-03-04T03:03:43;94935.81;;;10.01;65.05
22257;BME280;11297;42.686;23.374;2023-03-04T03:06:09;94936.25;;;9.94;64.89
22257;BME280;11297;42.686;23.374;2023-03-04T03:08:34;94944.78;;;9.95;65.09
22257;BME280;11297;42.686;23.374;2023-03-04T03:10:59;94943.34;;;9.89;65.26
22257;BME280;11297;42.686;23.374;2023-03-04T03:13:25;94947.50;;;9.90;64.97
22257;BME280;11297;42.686;23.374;2023-03-04T03:15:50;94949.59;;;9.88;65.09
22257;BME280;11297;42.686;23.374;2023-03-04T03:18:16;94951.25;;;9.84;65.00
22257;BME280;11297;42.686;23.374;2023-03-04T03:20:41;94951.78;;;9.72;64.99
22257;BME280;11297;42.686;23.374;2023-03-04T03:23:07;94943.53;;;9.70;65.14
22257;BME280;11297;42.686;23.374;2023-03-04T03:25:32;94952.22;;;9.66;65.78
22257;BME280;11297;42.686;23.374;2023-03-04T03:27:58;94954.34;;;9.51;65.80
22257;BME280;11297;42.686;23.374;2023-03-04T03:30:23;94947.41;;;9.38;66.63
22257;BME280;11297;42.686;23.374;2023-03-04T03:32:48;94943.38;;;9.32;66.95
22257;BME280;11297;42.686;23.374;2023-03-04T03:35:14;94940.00;;;9.31;66.86
22257;BME280;11297;42.686;23.374;2023-03-04T03:37:39;94930.06;;;9.25;66.81
22257;BME280;11297;42.686;23.374;2023-03-04T03:40:05;94938.59;;;9.25;66.56
22257;BME280;11297;42.686;23.374;2023-03-04T03:42:31;94939.38;;;9.26;66.97
22257;BME280;11297;42.686;23.374;2023-03-04T03:44:56;94939.56;;;9.29;66.65
22257;BME280;11297;42.686;23.374;2023-03-04T03:47:22;94937.91;;;9.33;66.48
22257;BME280;11297;42.686;23.374;2023-03-04T03:49:48;94934.44;;;9.38;66.68
22257;BME280;11297;42.686;23.374;2023-03-04T03:52:13;94936.44;;;9.41;66.47
22257;BME280;11297;42.686;23.374;2023-03-04T03:54:38;94932.19;;;9.45;66.26
22257;BME280;11297;42.686;23.374;2023-03-04T03:57:04;94927.50;;;9.47;65.99
22257;BME280;11297;42.686;23.374;2023-03-04T03:59:29;94930.25;;;9.50;65.77
22257;BME280;11297;42.686;23.374;2023-03-04T04:01:55;94933.63;;;9.51;65.82
22257;BME280;11297;42.686;23.374;2023-03-04T04:04:20;94924.03;;;9.51;66.22
22257;BME280;11297;42.686;23.374;2023-03-04T04:06:46;94918.66;;;9.48;66.08
22257;BME280;11297;42.686;23.374;2023-03-04T04:09:11;94914.03;;;9.45;65.90
22257;BME280;11297;42.686;23.374;2023-03-04T04:11:36;94909.28;;;9.38;66.04
22257;BME280;11297;42.686;23.374;2023-03-04T04:14:02;94910.03;;;9.39;66.12
22257;BME280;11297;42.686;23.374;2023-03-04T04:16:27;94918.59;;;9.39;65.54
22257;BME280;11297;42.686;23.374;2023-03-04T04:18:53;94910.16;;;9.34;66.26
22257;BME280;11297;42.686;23.374;2023-03-04T04:21:18;94925.88;;;9.37;66.41
22257;BME280;11297;42.686;23.374;2023-03-04T04:23:43;94915.34;;;9.34;66.08
22257;BME280;11297;42.686;23.374;2023-03-04T04:26:09;94923.00;;;9.39;66.11
22257;BME280;11297;42.686;23.374;2023-03-04T04:28:34;94915.22;;;9.39;65.83
22257;BME280;11297;42.686;23.374;2023-03-04T04:30:59;94907.75;;;9.37;65.54
22257;BME280;11297;42.686;23.374;2023-03-04T04:33:25;94923.50;;;9.41;65.80
22257;BME280;11297;42.686;23.374;2023-03-04T04:35:50;94921.78;;;9.36;66.17
22257;BME280;11297;42.686;23.374;2023-03-04T04:38:16;94912.28;;;9.32;65.81
22257;BME280;11297;42.686;23.374;2023-03-04T04:40:41;94911.25;;;9.19;66.50
22257;BME280;11297;42.686;23.374;2023-03-04T04:43:07;94920.28;;;9.22;66.41
22257;BME280;11297;42.686;23.374;2023-03-04T04:45:33;94923.75;;;9.17;66.89
22257;BME280;11297;42.686;23.374;2023-03-04T04:47:59;94916.25;;;9.16;66.80
22257;BME280;11297;42.686;23.374;2023-03-04T04:50:24;94920.69;;;9.15;67.58
22257;BME280;11297;42.686;23.374;2023-03-04T04:52:50;94921.16;;;9.17;66.98
22257;BME280;11297;42.686;23.374;2023-03-04T04:55:15;94917.97;;;9.20;67.06
22257;BME280;11297;42.686;23.374;2023-03-04T04:57:41;94928.22;;;9.25;66.82
22257;BME280;11297;42.686;23.374;2023-03-04T05:00:08;94925.53;;;9.30;67.36
22257;BME280;11297;42.686;23.374;2023-03-04T05:02:35;94932.25;;;9.31;67.04
22257;BME280;11297;42.686;23.374;2023-03-04T05:05:03;94929.19;;;9.29;66.69
22257;BME280;11297;42.686;23.374;2023-03-04T05:07:28;94927.63;;;9.28;67.03
22257;BME280;11297;42.686;23.374;2023-03-04T05:09:54;94943.09;;;9.33;67.42
22257;BME280;11297;42.686;23.374;2023-03-04T05:12:19;94945.88;;;9.37;67.47
22257;BME280;11297;42.686;23.374;2023-03-04T05:14:45;94949.22;;;9.37;67.00
22257;BME280;11297;42.686;23.374;2023-03-04T05:17:10;94957.56;;;9.34;66.59
22257;BME280;11297;42.686;23.374;2023-03-04T05:19:36;94945.03;;;9.28;66.63
22257;BME280;11297;42.686;23.374;2023-03-04T05:22:01;94945.50;;;9.30;66.93
22257;BME280;11297;42.686;23.374;2023-03-04T05:24:27;94943.97;;;9.29;67.03
22257;BME280;11297;42.686;23.374;2023-03-04T05:26:52;94947.31;;;9.29;67.25
22257;BME280;11297;42.686;23.374;2023-03-04T05:29:17;94948.88;;;9.30;67.13
22257;BME280;11297;42.686;23.374;2023-03-04T05:31:43;94949.44;;;9.27;67.22
22257;BME280;11297;42.686;23.374;2023-03-04T05:34:08;94959.69;;;9.32;67.08
22257;BME280;11297;42.686;23.374;2023-03-04T05:36:33;94963.72;;;9.38;66.77
22257;BME280;11297;42.686;23.374;2023-03-04T05:38:59;94967.25;;;9.42;66.78
22257;BME280;11297;42.686;23.374;2023-03-04T05:41:24;94962.25;;;9.46;66.29
22257;BME280;11297;42.686;23.374;2023-03-04T05:43:49;94967.03;;;9.52;65.76
22257;BME280;11297;42.686;23.374;2023-03-04T05:46:16;94962.78;;;9.56;64.92
22257;BME280;11297;42.686;23.374;2023-03-04T05:48:42;94971.03;;;9.58;64.91
22257;BME280;11297;42.686;23.374;2023-03-04T05:51:08;94964.81;;;9.59;64.80
22257;BME280;11297;42.686;23.374;2023-03-04T05:53:34;94956.28;;;9.58;64.34
22257;BME280;11297;42.686;23.374;2023-03-04T05:56:12;94966.50;;;9.63;64.07
22257;BME280;11297;42.686;23.374;2023-03-04T05:58:38;94977.34;;;9.65;64.06
22257;BME280;11297;42.686;23.374;2023-03-04T06:01:04;94971.13;;;9.66;63.99
22257;BME280;11297;42.686;23.374;2023-03-04T06:03:30;94966.34;;;9.60;63.47
22257;BME280;11297;42.686;23.374;2023-03-04T06:05:55;94981.78;;;9.65;63.93
22257;BME280;11297;42.686;23.374;2023-03-04T06:08:21;94976.59;;;9.65;63.70
22257;BME280;11297;42.686;23.374;2023-03-04T06:10:46;94988.38;;;9.71;63.29
22257;BME280;11297;42.686;23.374;2023-03-04T06:13:12;94982.75;;;9.69;64.02
22257;BME280;11297;42.686;23.374;2023-03-04T06:15:38;94976.97;;;9.72;64.30
22257;BME280;11297;42.686;23.374;2023-03-04T06:18:06;94973.59;;;9.71;63.40
22257;BME280;11297;42.686;23.374;2023-03-04T06:20:32;94988.25;;;9.76;63.13
22257;BME280;11297;42.686;23.374;2023-03-04T06:22:57;94982.50;;;9.79;63.67
22257;BME280;11297;42.686;23.374;2023-03-04T06:25:23;94990.19;;;9.84;63.96
22257;BME280;11297;42.686;23.374;2023-03-04T06:27:48;94982.41;;;9.84;64.05
22257;BME280;11297;42.686;23.374;2023-03-04T06:30:15;94986.56;;;9.93;63.53
22257;BME280;11297;42.686;23.374;2023-03-04T06:32:41;94974.94;;;9.91;63.81
22257;BME280;11297;42.686;23.374;2023-03-04T06:35:09;94988.69;;;10.04;64.21
22257;BME280;11297;42.686;23.374;2023-03-04T06:37:35;94988.53;;;10.09;63.94
22257;BME280;11297;42.686;23.374;2023-03-04T06:40:01;94998.47;;;10.07;64.39
22257;BME280;11297;42.686;23.374;2023-03-04T06:42:27;94994.34;;;10.15;63.80
22257;BME280;11297;42.686;23.374;2023-03-04T06:44:53;94998.66;;;10.19;63.41
22257;BME280;11297;42.686;23.374;2023-03-04T06:47:18;94987.69;;;10.22;63.63
22257;BME280;11297;42.686;23.374;2023-03-04T06:49:43;94994.13;;;10.25;63.60
22257;BME280;11297;42.686;23.374;2023-03-04T06:52:09;95004.66;;;10.28;63.81
22257;BME280;11297;42.686;23.374;2023-03-04T06:54:37;94995.22;;;10.32;63.27
22257;BME280;11297;42.686;23.374;2023-03-04T06:57:02;95000.72;;;10.31;62.43
22257;BME280;11297;42.686;23.374;2023-03-04T06:59:28;95004.66;;;10.28;63.17
22257;BME280;11297;42.686;23.374;2023-03-04T07:01:53;95004.66;;;10.28;63.24
22257;BME280;11297;42.686;23.374;2023-03-04T07:04:19;95011.09;;;10.31;63.54
22257;BME280;11297;42.686;23.374;2023-03-04T07:06:46;95005.78;;;10.36;63.22
22257;BME280;11297;42.686;23.374;2023-03-04T07:09:12;95007.50;;;10.40;63.21
22257;BME280;11297;42.686;23.374;2023-03-04T07:11:37;95007.97;;;10.42;63.32
22257;BME280;11297;42.686;23.374;2023-03-04T07:14:03;95005.25;;;10.47;63.09
22257;BME280;11297;42.686;23.374;2023-03-04T07:16:28;94999.25;;;10.38;63.44
22257;BME280;11297;42.686;23.374;2023-03-04T07:18:54;95005.09;;;10.44;63.03
22257;BME280;11297;42.686;23.374;2023-03-04T07:21:19;95008.56;;;10.39;63.57
22257;BME280;11297;42.686;23.374;2023-03-04T07:23:45;95014.75;;;10.30;63.70
22257;BME280;11297;42.686;23.374;2023-03-04T07:26:10;95014.72;;;10.21;64.04
22257;BME280;11297;42.686;23.374;2023-03-04T07:28:36;95013.94;;;10.21;63.84
22257;BME280;11297;42.686;23.374;2023-03-04T07:33:33;95014.25;;;9.98;64.98
22257;BME280;11297;42.686;23.374;2023-03-04T07:35:59;95003.28;;;10.52;76.24
22257;BME280;11297;42.686;23.374;2023-03-04T07:38:24;95017.72;;;10.37;67.61
22257;BME280;11297;42.686;23.374;2023-03-04T07:40:57;95018.13;;;10.30;65.81
22257;BME280;11297;42.686;23.374;2023-03-04T07:43:22;95022.38;;;10.26;65.41
22257;BME280;11297;42.686;23.374;2023-03-04T07:45:48;95021.72;;;10.21;65.35
22257;BME280;11297;42.686;23.374;2023-03-04T07:48:13;95017.13;;;10.18;65.24
22257;BME280;11297;42.686;23.374;2023-03-04T07:50:39;95012.13;;;10.21;65.26
22257;BME280;11297;42.686;23.374;2023-03-04T07:53:04;95015.03;;;10.20;65.02
22257;BME280;11297;42.686;23.374;2023-03-04T07:55:29;95010.59;;;10.20;65.09
22257;BME280;11297;42.686;23.374;2023-03-04T07:57:56;94996.94;;;10.15;65.26
22257;BME280;11297;42.686;23.374;2023-03-04T08:00:21;95007.75;;;10.30;64.76
22257;BME280;11297;42.686;23.374;2023-03-04T08:02:47;95006.72;;;10.40;64.64
22257;BME280;11297;42.686;23.374;2023-03-04T08:05:12;95007.97;;;10.42;64.76
22257;BME280;11297;42.686;23.374;2023-03-04T08:07:38;95002.19;;;10.45;64.28
22257;BME280;11297;42.686;23.374;2023-03-04T08:10:03;95007.72;;;10.52;63.89
22257;BME280;11297;42.686;23.374;2023-03-04T08:12:29;95006.81;;;10.56;63.77
22257;BME280;11297;42.686;23.374;2023-03-04T08:14:54;95007.91;;;10.55;63.76
22257;BME280;11297;42.686;23.374;2023-03-04T08:17:20;95008.94;;;10.54;63.39
22257;BME280;11297;42.686;23.374;2023-03-04T08:19:45;95008.66;;;10.56;63.26
22257;BME280;11297;42.686;23.374;2023-03-04T08:22:11;95005.00;;;10.57;63.23
22257;BME280;11297;42.686;23.374;2023-03-04T08:24:37;95009.50;;;10.43;63.62
22257;BME280;11297;42.686;23.374;2023-03-04T08:27:02;95001.59;;;10.48;63.79
22257;BME280;11297;42.686;23.374;2023-03-04T08:29:28;94995.81;;;10.51;63.47
22257;BME280;11297;42.686;23.374;2023-03-04T08:31:54;94994.59;;;10.57;64.09
22257;BME280;11297;42.686;23.374;2023-03-04T08:34:22;94999.72;;;10.70;63.36
22257;BME280;11297;42.686;23.374;2023-03-04T08:36:48;94989.19;;;10.75;63.19
22257;BME280;11297;42.686;23.374;2023-03-04T08:39:15;94991.22;;;10.87;62.53
22257;BME280;11297;42.686;23.374;2023-03-04T08:41:42;94995.22;;;10.93;62.45
22257;BME280;11297;42.686;23.374;2023-03-04T08:44:07;94989.09;;;10.97;62.20
22257;BME280;11297;42.686;23.374;2023-03-04T08:46:35;94993.09;;;11.03;61.94
22257;BME280;11297;42.686;23.374;2023-03-04T08:49:00;94993.09;;;11.11;61.71
22257;BME280;11297;42.686;23.374;2023-03-04T08:51:26;94981.81;;;11.16;61.23
22257;BME280;11297;42.686;23.374;2023-03-04T08:53:52;94987.47;;;11.26;60.46
22257;BME280;11297;42.686;23.374;2023-03-04T08:56:17;94988.56;;;11.34;59.98
22257;BME280;11297;42.686;23.374;2023-03-04T08:58:43;94987.81;;;11.33;59.72
22257;BME280;11297;42.686;23.374;2023-03-04T09:01:10;94987.78;;;11.25;59.73
22257;BME280;11297;42.686;23.374;2023-03-04T09:03:37;94993.41;;;10.63;61.36
22257;BME280;11297;42.686;23.374;2023-03-04T09:06:03;94999.00;;;10.87;61.84
22257;BME280;11297;42.686;23.374;2023-03-04T09:08:29;94976.41;;;11.04;61.88
22257;BME280;11297;42.686;23.374;2023-03-04T09:10:55;94969.13;;;11.23;61.01
22257;BME280;11297;42.686;23.374;2023-03-04T09:13:21;94976.34;;;11.43;60.27
22257;BME280;11297;42.686;23.374;2023-03-04T09:15:49;94974.09;;;11.66;59.49
22257;BME280;11297;42.686;23.374;2023-03-04T09:18:15;94979.16;;;11.88;58.81
22257;BME280;11297;42.686;23.374;2023-03-04T09:20:42;94970.56;;;12.04;57.69
22257;BME280;11297;42.686;23.374;2023-03-04T09:23:07;94970.84;;;12.20;57.34
22257;BME280;11297;42.686;23.374;2023-03-04T09:25:34;94958.84;;;12.36;57.25
22257;BME280;11297;42.686;23.374;2023-03-04T09:27:59;94962.31;;;12.56;56.16
22257;BME280;11297;42.686;23.374;2023-03-04T09:30:25;94957.19;;;12.77;56.18
22257;BME280;11297;42.686;23.374;2023-03-04T09:32:50;94961.31;;;12.78;55.80
22257;BME280;11297;42.686;23.374;2023-03-04T09:35:16;94947.00;;;12.55;54.87
22257;BME280;11297;42.686;23.374;2023-03-04T09:37:41;94955.56;;;12.55;54.76
22257;BME280;11297;42.686;23.374;2023-03-04T09:40:08;94952.50;;;12.62;53.80
22257;BME280;11297;42.686;23.374;2023-03-04T09:42:36;94944.91;;;12.40;54.13
22257;BME280;11297;42.686;23.374;2023-03-04T09:45:04;94959.28;;;12.38;54.32
22257;BME280;11297;42.686;23.374;2023-03-04T09:47:33;94953.84;;;12.14;54.85
22257;BME280;11297;42.686;23.374;2023-03-04T09:50:06;94946.50;;;12.07;55.38
22257;BME280;11297;42.686;23.374;2023-03-04T09:55:39;94946.81;;;11.97;56.50
22257;BME280;11297;42.686;23.374;2023-03-04T10:00:53;94938.75;;;11.82;55.75
22257;BME280;11297;42.686;23.374;2023-03-04T10:03:26;94942.56;;;11.76;56.66
22257;BME280;11297;42.686;23.374;2023-03-04T10:06:04;94936.91;;;11.66;57.31
22257;BME280;11297;42.686;23.374;2023-03-04T10:08:39;94933.66;;;11.43;58.26
22257;BME280;11297;42.686;23.374;2023-03-04T10:11:13;94937.84;;;11.61;57.04
22257;BME280;11297;42.686;23.374;2023-03-04T10:16:20;94928.97;;;11.54;56.33
22257;BME280;11297;42.686;23.374;2023-03-04T10:19:14;94920.84;;;11.55;56.80
22257;BME280;11297;42.686;23.374;2023-03-04T10:21:49;94927.56;;;12.44;76.12
22257;BME280;11297;42.686;23.374;2023-03-04T10:24:18;94916.84;;;12.45;59.22
22257;BME280;11297;42.686;23.374;2023-03-04T10:26:52;94909.06;;;12.29;56.79
22257;BME280;11297;42.686;23.374;2023-03-04T10:29:20;94915.50;;;12.31;55.76
22257;BME280;11297;42.686;23.374;2023-03-04T10:31:47;94919.16;;;12.39;61.42
22257;BME280;11297;42.686;23.374;2023-03-04T10:34:14;94909.03;;;12.45;55.80
22257;BME280;11297;42.686;23.374;2023-03-04T10:39:24;94899.13;;;12.68;54.38
22257;BME280;11297;42.686;23.374;2023-03-04T10:41:56;94888.28;;;12.57;54.43
22257;BME280;11297;42.686;23.374;2023-03-04T10:44:22;94890.09;;;12.57;54.14
22257;BME280;11297;42.686;23.374;2023-03-04T10:46:49;94849.44;;;12.36;54.41
22257;BME280;11297;42.686;23.374;2023-03-04T10:49:16;94887.38;;;12.53;54.93
22257;BME280;11297;42.686;23.374;2023-03-04T10:51:43;94876.84;;;12.70;54.09
22257;BME280;11297;42.686;23.374;2023-03-04T10:56:42;94872.06;;;13.09;52.70
22257;BME280;11297;42.686;23.374;2023-03-04T11:02:34;94873.13;;;13.49;51.09
22257;BME280;11297;42.686;23.374;2023-03-04T11:05:22;94864.28;;;13.41;50.50
22257;BME280;11297;42.686;23.374;2023-03-04T11:07:52;94861.19;;;13.48;50.28
22257;BME280;11297;42.686;23.374;2023-03-04T11:10:24;94853.06;;;13.61;50.22
22257;BME280;11297;42.686;23.374;2023-03-04T11:13:02;94847.00;;;13.69;50.11
22257;BME280;11297;42.686;23.374;2023-03-04T11:18:13;94834.13;;;15.03;78.28
22257;BME280;11297;42.686;23.374;2023-03-04T11:20:41;94834.03;;;15.93;75.57
22257;BME280;11297;42.686;23.374;2023-03-04T11:23:13;94827.88;;;17.12;81.76
22257;BME280;11297;42.686;23.374;2023-03-04T11:25:43;94811.47;;;16.04;48.48
22257;BME280;11297;42.686;23.374;2023-03-04T11:28:21;94812.44;;;15.69;46.66
22257;BME280;11297;42.686;23.374;2023-03-04T11:30:57;94805.06;;;15.32;47.36
22257;BME280;11297;42.686;23.374;2023-03-04T11:33:44;94806.00;;;15.12;46.88
22257;BME280;11297;42.686;23.374;2023-03-04T11:38:53;94778.44;;;14.04;48.84
22257;BME280;11297;42.686;23.374;2023-03-04T11:41:33;94804.78;;;14.11;48.63
22257;BME280;11297;42.686;23.374;2023-03-04T11:44:00;94789.28;;;13.94;48.87
22257;BME280;11297;42.686;23.374;2023-03-04T11:46:48;94795.56;;;13.82;49.81
22257;BME280;11297;42.686;23.374;2023-03-04T11:55:00;94794.41;;;13.47;50.29
22257;BME280;11297;42.686;23.374;2023-03-04T12:09:38;94782.75;;;12.92;52.08
22257;BME280;11297;42.686;23.374;2023-03-04T12:12:28;94782.34;;;12.82;55.23
22257;BME280;11297;42.686;23.374;2023-03-04T12:20:39;94772.19;;;12.68;55.60
22257;BME280;11297;42.686;23.374;2023-03-04T12:26:15;94764.53;;;12.14;55.78
22257;BME280;11297;42.686;23.374;2023-03-04T12:42:33;94755.78;;;12.68;53.89
22257;BME280;11297;42.686;23.374;2023-03-04T12:48:13;94745.38;;;12.68;53.58
22257;BME280;11297;42.686;23.374;2023-03-04T12:56:28;94735.03;;;12.51;53.24
22257;BME280;11297;42.686;23.374;2023-03-04T12:58:55;94727.84;;;12.48;54.82
22257;BME280;11297;42.686;23.374;2023-03-04T13:04:22;94735.50;;;12.53;53.99
22257;BME280;11297;42.686;23.374;2023-03-04T13:09:54;94713.88;;;12.52;53.46
22257;BME280;11297;42.686;23.374;2023-03-04T13:12:23;94715.72;;;12.52;53.93
22257;BME280;11297;42.686;23.374;2023-03-04T13:17:50;94718.03;;;12.74;53.55
22257;BME280;11297;42.686;23.374;2023-03-04T13:22:59;94710.00;;;12.79;52.98
22257;BME280;11297;42.686;23.374;2023-03-04T13:25:31;94696.16;;;12.87;52.69
22257;BME280;11297;42.686;23.374;2023-03-04T13:28:11;94696.66;;;13.00;52.85
22257;BME280;11297;42.686;23.374;2023-03-04T13:30:40;94693.59;;;12.98;52.42
22257;BME280;11297;42.686;23.374;2023-03-04T14:01:54;94640.16;;;12.72;52.32
22257;BME280;11297;42.686;23.374;2023-03-04T14:06:53;94657.56;;;12.80;52.79
22257;BME280;11297;42.686;23.374;2023-03-04T14:09:33;94666.00;;;12.97;52.24
22257;BME280;11297;42.686;23.374;2023-03-04T14:12:04;94648.50;;;12.98;52.41
22257;BME280;11297;42.686;23.374;2023-03-04T14:14:46;94664.75;;;13.15;52.23
22257;BME280;11297;42.686;23.374;2023-03-04T14:17:21;94662.69;;;13.21;51.92
22257;BME280;11297;42.686;23.374;2023-03-04T14:19:49;94663.81;;;13.32;51.66
22257;BME280;11297;42.686;23.374;2023-03-04T14:27:27;94658.75;;;13.15;51.96
22257;BME280;11297;42.686;23.374;2023-03-04T14:29:58;94654.81;;;12.97;52.92
22257;BME280;11297;42.686;23.374;2023-03-04T14:32:24;94642.91;;;13.08;52.60
22257;BME280;11297;42.686;23.374;2023-03-04T14:34:51;94652.53;;;13.07;52.51
22257;BME280;11297;42.686;23.374;2023-03-04T14:37:24;94650.41;;;13.09;52.53
22257;BME280;11297;42.686;23.374;2023-03-04T14:39:55;94639.44;;;13.16;52.28
22257;BME280;11297;42.686;23.374;2023-03-04T14:42:35;94635.94;;;13.12;52.25
22257;BME280;11297;42.686;23.374;2023-03-04T14:45:01;94641.81;;;13.21;51.89
22257;BME280;11297;42.686;23.374;2023-03-04T14:49:55;94640.97;;;13.17;52.18
22257;BME280;11297;42.686;23.374;2023-03-04T14:52:32;94635.28;;;13.15;52.02
22257;BME280;11297;42.686;23.374;2023-03-04T14:55:15;94602.66;;;12.97;52.35
22257;BME280;11297;42.686;23.374;2023-03-04T14:57:42;94632.25;;;13.13;52.23
22257;BME280;11297;42.686;23.374;2023-03-04T15:02:51;94607.78;;;13.05;52.27
22257;BME280;11297;42.686;23.374;2023-03-04T15:05:30;94627.78;;;13.13;52.34
22257;BME280;11297;42.686;23.374;2023-03-04T15:10:32;94619.84;;;12.98;52.65